| time (UTC) | temp C | wind direction | speed KPH | gust KPH | rain 1hr cm | rain 24hr cm | rain mn cm | humidity % | barometer mb |
| 20260509101533 | 18 | 86 | 17.7 | 17.7 | 0.00 | 0.00 | 0.00 | 52 | 1018.5 |
| 20260509101031 | 18 | 130 | 1.6 | 6.4 | 0.00 | 0.00 | 0.00 | 52 | 1018.5 |
| 20260509100519 | 18 | 130 | 1.6 | 8.0 | 0.00 | 0.00 | 0.00 | 54 | 1018.6 |
| 20260509100014 | 18 | 89 | 6.4 | 14.5 | 0.00 | 0.00 | 0.00 | 54 | 1018.4 |
| 20260509095505 | -17 | 65 | 11.3 | 14.5 | 0.00 | 0.00 | 0.00 | 1018.5 | |
| 20260509095326 | 18 | 100 | 6.4 | 14.5 | 0.00 | 0.00 | 0.00 | 57 | 1018.5 |
| 20260509094840 | -17 | 116 | 8.0 | 11.3 | 0.00 | 0.00 | 0.00 | 1018.6 | |
| 20260509094652 | 18 | 97 | 9.7 | 11.3 | 0.00 | 0.00 | 0.00 | 57 | 1018.6 |
| 20260509093448 | -17 | 141 | 6.4 | 9.7 | 0.00 | 0.00 | 0.00 | 1018.6 | |
| 20260509093414 | -17 | 140 | 8.0 | 9.7 | 0.00 | 0.00 | 0.00 | 1018.6 | |
| 20260509093334 | 17 | 111 | 6.4 | 11.3 | 0.00 | 0.00 | 0.00 | 61 | 1018.7 |
| 20260509091954 | 17 | 111 | 6.4 | 16.1 | 0.00 | 0.00 | 0.00 | 61 | 1018.7 |
| 20260509091445 | 17 | 87 | 12.9 | 16.1 | 0.00 | 0.00 | 0.00 | 61 | 1018.7 |
| 20260509090942 | 17 | 69 | 8.0 | 9.7 | 0.00 | 0.00 | 0.00 | 61 | 1018.7 |
| 20260509090445 | 16 | 83 | 6.4 | 9.7 | 0.00 | 0.00 | 0.00 | 63 | 1018.7 |
| 20260509085938 | 16 | 63 | 4.8 | 9.7 | 0.00 | 0.00 | 0.00 | 63 | 1018.8 |
| 20260509085440 | 16 | 85 | 6.4 | 9.7 | 0.00 | 0.00 | 0.00 | 65 | 1018.8 |
| 20260509084931 | 16 | 73 | 6.4 | 11.3 | 0.00 | 0.00 | 0.00 | 66 | 1018.8 |
| 20260509084747 | 16 | 76 | 11.3 | 11.3 | 0.00 | 0.00 | 0.00 | 66 | 1018.8 |
| 20260509083929 | 15 | 111 | 6.4 | 9.7 | 0.00 | 0.00 | 0.00 | 66 | 1018.8 |
| 20260509083757 | 15 | 69 | 6.4 | 9.7 | 0.00 | 0.00 | 0.00 | 69 | 1018.8 |
| 20260509083342 | 15 | 137 | 4.8 | 9.7 | 0.00 | 0.00 | 0.00 | 72 | 1018.8 |
| 20260509082758 | 15 | 63 | 4.8 | 6.4 | 0.00 | 0.00 | 0.00 | 72 | 1018.8 |
| 20260509082248 | 14 | 131 | 4.8 | 8.0 | 0.00 | 0.00 | 0.00 | 72 | 1018.7 |
| 20260509081429 | 14 | 45 | 6.4 | 14.5 | 0.00 | 0.00 | 0.00 | 71 | 1018.7 |
| 20260509080929 | 14 | 54 | 6.4 | 14.5 | 0.00 | 0.00 | 0.00 | 72 | 1018.8 |
| 20260509080424 | 13 | 107 | 11.3 | 11.3 | 0.00 | 0.00 | 0.00 | 77 | 1018.7 |
| 20260509080155 | 13 | 75 | 4.8 | 11.3 | 0.00 | 0.00 | 0.00 | 78 | 1018.8 |
| 20260509080011 | 13 | 73 | 3.2 | 6.4 | 0.00 | 0.00 | 0.00 | 77 | 1018.7 |
| 20260509074922 | 12 | 56 | 11.3 | 11.3 | 0.00 | 0.00 | 0.00 | 80 | 1018.8 |
| 20260509074433 | 12 | 75 | 6.4 | 9.7 | 0.00 | 0.00 | 0.00 | 81 | 1018.8 |
| 20260509074305 | 12 | 99 | 4.8 | 11.3 | 0.00 | 0.00 | 0.00 | 82 | 1018.7 |
| 20260509073415 | 11 | 82 | 6.4 | 11.3 | 0.00 | 0.00 | 0.00 | 84 | 1018.7 |
| 20260509072908 | 11 | 121 | 4.8 | 8.0 | 0.00 | 0.00 | 0.00 | 85 | 1018.7 |
| 20260509072409 | 11 | 54 | 6.4 | 14.5 | 0.00 | 0.00 | 0.00 | 86 | 1018.6 |
| 20260509072316 | 11 | 39 | 4.8 | 14.5 | 0.00 | 0.00 | 0.00 | 88 | 1018.8 |
| 20260509071810 | 11 | 47 | 4.8 | 8.0 | 0.00 | 0.00 | 0.00 | 90 | 1018.7 |
| 20260509070908 | 10 | 62 | 8.0 | 11.3 | 0.00 | 0.00 | 0.00 | 90 | 1018.7 |
| 20260509070704 | -17 | 66 | 6.4 | 11.3 | 0.00 | 0.00 | 0.00 | 1018.7 | |
| 20260509065904 | 10 | 55 | 11.3 | 11.3 | 0.00 | 0.00 | 0.00 | 92 | 1018.7 |
| 20260509065409 | 10 | 75 | 6.4 | 9.7 | 0.00 | 0.00 | 0.00 | 92 | 1018.6 |
| 20260509064905 | 8 | 97 | 8.0 | 9.7 | 0.00 | 0.00 | 0.00 | 92 | 1018.6 |
| 20260509064405 | 8 | 71 | 4.8 | 9.7 | 0.00 | 0.00 | 0.00 | 92 | 1018.6 |
| 20260509064309 | 8 | 55 | 4.8 | 8.0 | 0.00 | 0.00 | 0.00 | 93 | 1018.6 |
| 20260509063410 | 8 | 47 | 6.4 | 8.0 | 0.00 | 0.00 | 0.00 | 93 | 1018.6 |
| 20260509062906 | 8 | 55 | 6.4 | 8.0 | 0.00 | 0.00 | 0.00 | 93 | 1018.6 |
| 20260509062404 | 7 | 51 | 1.6 | 4.8 | 0.00 | 0.00 | 0.00 | 92 | 1018.6 |
| 20260509061903 | 7 | 282 | 0.0 | 0.0 | 0.00 | 0.00 | 0.00 | 92 | 1018.7 |
| 20260509061404 | 7 | 282 | 0.0 | 0.0 | 0.00 | 0.00 | 0.00 | 92 | 1018.7 |
| 20260509060903 | 6 | 282 | 0.0 | 0.0 | 0.00 | 0.00 | 0.00 | 92 | 1018.7 |
| 20260509060401 | 6 | 282 | 0.0 | 0.0 | 0.00 | 0.00 | 0.00 | 92 | 1018.5 |
| 20260509055902 | 6 | 282 | 0.0 | 0.0 | 0.00 | 0.00 | 0.00 | 92 | 1018.5 |
| 20260509055702 | 5 | 282 | 0.0 | 0.0 | 0.00 | 0.00 | 0.00 | 92 | 1018.5 |
| 20260509054900 | 5 | 282 | 0.0 | 0.0 | 0.00 | 0.00 | 0.00 | 91 | 1018.5 |
| 20260509054400 | 5 | 282 | 0.0 | 0.0 | 0.00 | 0.00 | 0.00 | 91 | 1018.5 |
| 20260509053903 | 4 | 282 | 0.0 | 0.0 | 0.00 | 0.00 | 0.00 | 90 | 1018.5 |
| 20260509053358 | 4 | 282 | 0.0 | 0.0 | 0.00 | 0.00 | 0.00 | 90 | 1018.4 |
| 20260509052900 | 3 | 282 | 0.0 | 0.0 | 0.00 | 0.00 | 0.00 | 89 | 1018.4 |
| 20260509052400 | 3 | 282 | 0.0 | 0.0 | 0.00 | 0.00 | 0.00 | 89 | 1018.4 |
| 20260509051858 | 3 | 282 | 0.0 | 0.0 | 0.00 | 0.00 | 0.00 | 88 | 1018.5 |
| 20260509051355 | 3 | 282 | 0.0 | 0.0 | 0.00 | 0.00 | 0.00 | 88 | 1018.4 |
| 20260509050854 | 3 | 282 | 0.0 | 0.0 | 0.00 | 0.00 | 0.00 | 88 | 1018.4 |
| 20260509050354 | 3 | 282 | 0.0 | 0.0 | 0.00 | 0.00 | 0.00 | 87 | 1018.3 |
| 20260509045853 | 3 | 282 | 0.0 | 0.0 | 0.00 | 0.00 | 0.00 | 87 | 1018.3 |
| 20260509045355 | 3 | 282 | 0.0 | 0.0 | 0.00 | 0.00 | 0.00 | 87 | 1018.3 |
| 20260509044854 | 3 | 282 | 0.0 | 0.0 | 0.00 | 0.00 | 0.00 | 87 | 1018.4 |
| 20260509044352 | 3 | 282 | 0.0 | 0.0 | 0.00 | 0.00 | 0.00 | 87 | 1018.4 |
| 20260509044212 | 3 | 282 | 0.0 | 0.0 | 0.00 | 0.00 | 0.00 | 87 | 1018.4 |
| 20260509043654 | 3 | 282 | 0.0 | 0.0 | 0.00 | 0.00 | 0.00 | 87 | 1018.4 |
| 20260509042848 | 3 | 282 | 0.0 | 0.0 | 0.00 | 0.00 | 0.00 | 87 | 1018.4 |
| 20260509042347 | 3 | 282 | 0.0 | 0.0 | 0.00 | 0.00 | 0.00 | 87 | 1018.4 |
| 20260509041847 | 3 | 125 | 0.0 | 0.0 | 0.00 | 0.00 | 0.00 | 87 | 1018.4 |
| 20260509041348 | 3 | 125 | 0.0 | 0.0 | 0.00 | 0.00 | 0.00 | 87 | 1018.4 |
| 20260509040845 | 3 | 125 | 0.0 | 0.0 | 0.00 | 0.00 | 0.00 | 87 | 1018.4 |
| 20260509040647 | 3 | 125 | 0.0 | 0.0 | 0.00 | 0.00 | 0.00 | 87 | 1018.4 |
| 20260509035846 | 3 | 125 | 0.0 | 0.0 | 0.00 | 0.00 | 0.00 | 87 | 1018.4 |
| 20260509035346 | 3 | 125 | 0.0 | 0.0 | 0.00 | 0.00 | 0.00 | 87 | 1018.4 |
| 20260509034846 | 3 | 125 | 0.0 | 0.0 | 0.00 | 0.00 | 0.00 | 87 | 1018.4 |
| 20260509034347 | 3 | 125 | 0.0 | 0.0 | 0.00 | 0.00 | 0.00 | 87 | 1018.4 |
| 20260509033942 | 4 | 125 | 0.0 | 0.0 | 0.00 | 0.00 | 0.00 | 86 | 1018.4 |
| 20260509033924 | 3 | 125 | 0.0 | 0.0 | 0.00 | 0.00 | 0.00 | 86 | 1018.5 |
| 20260509032844 | 4 | 125 | 0.0 | 0.0 | 0.00 | 0.00 | 0.00 | 86 | 1018.5 |
| 20260509032346 | 4 | 125 | 0.0 | 0.0 | 0.00 | 0.00 | 0.00 | 86 | 1018.4 |
| 20260509031849 | 4 | 125 | 0.0 | 0.0 | 0.00 | 0.00 | 0.00 | 86 | 1018.4 |
| 20260509031344 | 4 | 125 | 0.0 | 0.0 | 0.00 | 0.00 | 0.00 | 85 | 1018.5 |
| 20260509031204 | 4 | 125 | 0.0 | 0.0 | 0.00 | 0.00 | 0.00 | 85 | 1018.5 |
| 20260509030344 | 4 | 125 | 0.0 | 0.0 | 0.00 | 0.00 | 0.00 | 85 | 1018.5 |
| 20260509025844 | 4 | 125 | 0.0 | 0.0 | 0.00 | 0.00 | 0.00 | 85 | 1018.5 |
| 20260509025649 | 4 | 125 | 0.0 | 0.0 | 0.00 | 0.00 | 0.00 | 85 | 1018.6 |
| 20260509024843 | 4 | 125 | 0.0 | 0.0 | 0.00 | 0.00 | 0.00 | 85 | 1018.6 |
| 20260509024345 | 4 | 125 | 0.0 | 0.0 | 0.00 | 0.00 | 0.00 | 85 | 1018.5 |
| 20260509023844 | 4 | 125 | 0.0 | 0.0 | 0.00 | 0.00 | 0.00 | 85 | 1018.5 |
| 20260509023343 | 4 | 125 | 0.0 | 0.0 | 0.00 | 0.00 | 0.00 | 85 | 1018.6 |
| 20260509022844 | 5 | 125 | 0.0 | 0.0 | 0.00 | 0.00 | 0.00 | 85 | 1018.5 |
| 20260509022344 | 5 | 125 | 0.0 | 0.0 | 0.00 | 0.00 | 0.00 | 84 | 1018.6 |
| 20260509021844 | 5 | 125 | 0.0 | 0.0 | 0.00 | 0.00 | 0.00 | 85 | 1018.6 |
| 20260509021345 | 5 | 125 | 0.0 | 0.0 | 0.00 | 0.00 | 0.00 | 85 | 1018.6 |
| 20260509021206 | 5 | 125 | 0.0 | 0.0 | 0.00 | 0.00 | 0.00 | 85 | 1018.6 |
| 20260509020343 | 5 | 125 | 0.0 | 0.0 | 0.00 | 0.00 | 0.00 | 85 | 1018.6 |
| 20260509015844 | 5 | 125 | 0.0 | 0.0 | 0.00 | 0.00 | 0.00 | 84 | 1018.6 |
| 20260509015344 | 5 | 125 | 0.0 | 0.0 | 0.00 | 0.00 | 0.00 | 84 | 1018.6 |
| 20260509014844 | 5 | 125 | 0.0 | 0.0 | 0.00 | 0.00 | 0.00 | 84 | 1018.6 |
| 20260509014345 | 5 | 125 | 0.0 | 0.0 | 0.00 | 0.00 | 0.00 | 84 | 1018.6 |
| 20260509014205 | 5 | 125 | 0.0 | 0.0 | 0.00 | 0.00 | 0.00 | 83 | 1018.7 |
| 20260509013648 | 5 | 125 | 0.0 | 0.0 | 0.00 | 0.00 | 0.00 | 83 | 1018.6 |
| 20260509012845 | 5 | 125 | 0.0 | 0.0 | 0.00 | 0.00 | 0.00 | 83 | 1018.6 |
| 20260509012347 | 5 | 125 | 0.0 | 0.0 | 0.00 | 0.00 | 0.00 | 83 | 1018.6 |
| 20260509011843 | 5 | 125 | 0.0 | 0.0 | 0.00 | 0.00 | 0.00 | 83 | 1018.6 |
| 20260509011345 | 5 | 125 | 0.0 | 0.0 | 0.00 | 0.00 | 0.00 | 83 | 1018.7 |
| 20260509010845 | 6 | 125 | 0.0 | 0.0 | 0.00 | 0.00 | 0.00 | 82 | 1018.7 |
| 20260509010346 | 6 | 125 | 0.0 | 0.0 | 0.00 | 0.00 | 0.00 | 82 | 1018.7 |
| 20260509010226 | 6 | 125 | 0.0 | 0.0 | 0.00 | 0.00 | 0.00 | 82 | 1018.7 |
| 20260509005343 | 6 | 125 | 0.0 | 0.0 | 0.00 | 0.00 | 0.00 | 82 | 1018.7 |
| 20260509004842 | 6 | 125 | 0.0 | 0.0 | 0.00 | 0.00 | 0.00 | 82 | 1018.7 |
| 20260509004343 | 6 | 125 | 0.0 | 0.0 | 0.00 | 0.00 | 0.00 | 82 | 1018.7 |
| 20260509003846 | 6 | 125 | 0.0 | 0.0 | 0.00 | 0.00 | 0.00 | 81 | 1018.7 |
| 20260509003344 | 6 | 125 | 0.0 | 0.0 | 0.00 | 0.00 | 0.00 | 81 | 1018.7 |
| 20260509002843 | 6 | 125 | 0.0 | 0.0 | 0.00 | 0.00 | 0.00 | 81 | 1018.6 |
| 20260509002645 | 6 | 125 | 0.0 | 0.0 | 0.00 | 0.00 | 0.00 | 81 | 1018.7 |
| 20260509001849 | 6 | 125 | 0.0 | 0.0 | 0.00 | 0.00 | 0.00 | 81 | 1018.6 |
| 20260509001346 | 7 | 125 | 0.0 | 0.0 | 0.00 | 0.00 | 0.00 | 81 | 1018.7 |
| 20260509001201 | 7 | 125 | 0.0 | 0.0 | 0.00 | 0.00 | 0.00 | 81 | 1018.6 |
| 20260509000638 | 7 | 125 | 0.0 | 0.0 | 0.00 | 0.00 | 0.00 | 80 | 1018.7 |
| 20260508235842 | 7 | 125 | 0.0 | 0.0 | 0.00 | 0.00 | 0.00 | 80 | 1018.7 |
| 20260508235342 | 7 | 125 | 0.0 | 0.0 | 0.00 | 0.00 | 0.00 | 80 | 1018.7 |
| 20260508234844 | 7 | 125 | 0.0 | 0.0 | 0.00 | 0.00 | 0.00 | 80 | 1018.8 |
| 20260508234650 | 7 | 125 | 0.0 | 0.0 | 0.00 | 0.00 | 0.00 | 80 | 1018.8 |
| 20260508233842 | 7 | 125 | 0.0 | 0.0 | 0.00 | 0.00 | 0.00 | 80 | 1018.8 |
| 20260508233343 | 7 | 125 | 0.0 | 0.0 | 0.00 | 0.00 | 0.00 | 79 | 1018.8 |
| 20260508232842 | 8 | 125 | 0.0 | 0.0 | 0.00 | 0.00 | 0.00 | 79 | 1018.8 |
| 20260508232342 | 8 | 125 | 0.0 | 0.0 | 0.00 | 0.00 | 0.00 | 79 | 1018.9 |
| 20260508231843 | 8 | 125 | 0.0 | 0.0 | 0.00 | 0.00 | 0.00 | 78 | 1018.8 |
| 20260508231341 | 8 | 125 | 0.0 | 0.0 | 0.00 | 0.00 | 0.00 | 78 | 1018.8 |
| 20260508230841 | 8 | 125 | 0.0 | 0.0 | 0.00 | 0.00 | 0.00 | 78 | 1018.7 |
| 20260508230343 | 8 | 125 | 0.0 | 0.0 | 0.00 | 0.00 | 0.00 | 77 | 1018.8 |
| 20260508225841 | 8 | 125 | 0.0 | 0.0 | 0.00 | 0.00 | 0.00 | 77 | 1018.8 |
| 20260508225342 | 9 | 125 | 0.0 | 0.0 | 0.00 | 0.00 | 0.00 | 76 | 1018.8 |
| 20260508224840 | 9 | 125 | 0.0 | 0.0 | 0.00 | 0.00 | 0.00 | 76 | 1018.7 |
| 20260508224342 | 9 | 125 | 0.0 | 0.0 | 0.00 | 0.00 | 0.00 | 76 | 1018.7 |
| 20260508223840 | 9 | 125 | 0.0 | 0.0 | 0.00 | 0.00 | 0.00 | 76 | 1018.7 |
| 20260508223641 | 10 | 125 | 0.0 | 0.0 | 0.00 | 0.00 | 0.00 | 76 | 1018.7 |
| 20260508222840 | 10 | 125 | 0.0 | 0.0 | 0.00 | 0.00 | 0.00 | 75 | 1018.6 |
| 20260508222339 | 10 | 125 | 0.0 | 0.0 | 0.00 | 0.00 | 0.00 | 75 | 1018.6 |
| 20260508221840 | 10 | 125 | 0.0 | 0.0 | 0.00 | 0.00 | 0.00 | 75 | 1018.7 |
| 20260508221340 | 10 | 125 | 0.0 | 0.0 | 0.00 | 0.00 | 0.00 | 74 | 1018.6 |
| 20260508220840 | 10 | 125 | 0.0 | 0.0 | 0.00 | 0.00 | 0.00 | 74 | 1018.6 |
| 20260508220342 | 10 | 125 | 0.0 | 1.6 | 0.00 | 0.00 | 0.00 | 75 | 1018.6 |
| 20260508215840 | 10 | 125 | 0.0 | 3.2 | 0.00 | 0.00 | 0.00 | 75 | 1018.6 |
| 20260508215339 | 11 | 125 | 0.0 | 3.2 | 0.00 | 0.00 | 0.00 | 74 | 1018.6 |
| 20260508214840 | 11 | 125 | 0.0 | 4.8 | 0.00 | 0.00 | 0.00 | 74 | 1018.6 |
| 20260508214649 | 11 | 125 | 0.0 | 4.8 | 0.00 | 0.00 | 0.00 | 74 | 1018.5 |
| 20260508213840 | 11 | 125 | 1.6 | 4.8 | 0.00 | 0.00 | 0.00 | 74 | 1018.6 |
| 20260508213338 | 11 | 125 | 1.6 | 8.0 | 0.00 | 0.00 | 0.00 | 74 | 1018.5 |
| 20260508212836 | 11 | 125 | 3.2 | 9.7 | 0.00 | 0.00 | 0.00 | 75 | 1018.5 |
| 20260508212339 | 11 | 120 | 3.2 | 9.7 | 0.00 | 0.00 | 0.00 | 74 | 1018.5 |
| 20260508211834 | 11 | 118 | 3.2 | 6.4 | 0.00 | 0.00 | 0.00 | 74 | 1018.5 |
| 20260508211334 | 11 | 118 | 3.2 | 8.0 | 0.00 | 0.00 | 0.00 | 73 | 1018.4 |
| 20260508210833 | 11 | 121 | 3.2 | 8.0 | 0.00 | 0.00 | 0.00 | 73 | 1018.4 |
| 20260508210335 | 11 | 107 | 3.2 | 8.0 | 0.00 | 0.00 | 0.00 | 72 | 1018.4 |
| 20260508205835 | 12 | 106 | 3.2 | 8.0 | 0.00 | 0.00 | 0.00 | 71 | 1018.4 |
| 20260508205334 | 12 | 116 | 0.0 | 1.6 | 0.00 | 0.00 | 0.00 | 70 | 1018.4 |
| 20260508204833 | 12 | 116 | 0.0 | 4.8 | 0.00 | 0.00 | 0.00 | 70 | 1018.4 |
| 20260508204640 | 12 | 116 | 1.6 | 4.8 | 0.00 | 0.00 | 0.00 | 69 | 1018.3 |
| 20260508203831 | 12 | 116 | 1.6 | 3.2 | 0.00 | 0.00 | 0.00 | 69 | 1018.2 |
| 20260508203332 | 12 | 116 | 0.0 | 3.2 | 0.00 | 0.00 | 0.00 | 68 | 1018.3 |
| 20260508202832 | 12 | 116 | 1.6 | 4.8 | 0.00 | 0.00 | 0.00 | 68 | 1018.2 |
| 20260508202330 | 13 | 116 | 1.6 | 4.8 | 0.00 | 0.00 | 0.00 | 68 | 1018.1 |
| 20260508202157 | 13 | 116 | 1.6 | 4.8 | 0.00 | 0.00 | 0.00 | 67 | 1018.1 |
| 20260508201328 | 13 | 116 | 0.0 | 3.2 | 0.00 | 0.00 | 0.00 | 66 | 1018.1 |
| 20260508200829 | 13 | 116 | 1.6 | 3.2 | 0.00 | 0.00 | 0.00 | 66 | 1018.0 |
| 20260508200327 | 13 | 116 | 0.0 | 4.8 | 0.00 | 0.00 | 0.00 | 66 | 1017.9 |
| 20260508195822 | 13 | 116 | 0.0 | 4.8 | 0.00 | 0.00 | 0.00 | 66 | 1017.8 |
| 20260508195323 | 14 | 116 | 0.0 | 3.2 | 0.00 | 0.00 | 0.00 | 66 | 1017.7 |
| 20260508194822 | 14 | 116 | 0.0 | 4.8 | 0.00 | 0.00 | 0.00 | 65 | 1017.7 |
| 20260508194322 | 14 | 116 | 0.0 | 4.8 | 0.00 | 0.00 | 0.00 | 65 | 1017.8 |
| 20260508193822 | 14 | 116 | 0.0 | 6.4 | 0.00 | 0.00 | 0.00 | 65 | 1017.7 |
| 20260508193321 | 14 | 116 | 3.2 | 6.4 | 0.00 | 0.00 | 0.00 | 65 | 1017.6 |
| 20260508193201 | 14 | 123 | 3.2 | 6.4 | 0.00 | 0.00 | 0.00 | 64 | 1017.6 |
| 20260508192320 | 15 | 118 | 4.8 | 9.7 | 0.00 | 0.00 | 0.00 | 64 | 1017.5 |
| 20260508192135 | 15 | 120 | 3.2 | 9.7 | 0.00 | 0.00 | 0.00 | 64 | 1017.4 |
| 20260508191317 | 15 | 116 | 4.8 | 8.0 | 0.00 | 0.00 | 0.00 | 64 | 1017.4 |
| 20260508191131 | 15 | 118 | 4.8 | 8.0 | 0.00 | 0.00 | 0.00 | 64 | 1017.2 |
| 20260508190309 | -17 | 124 | 6.4 | 6.4 | 0.00 | 0.00 | 0.00 | 1017.2 | |
| 20260508185807 | 15 | 120 | 3.2 | 4.8 | 0.00 | 0.00 | 0.00 | 63 | 1017.1 |
| 20260508185603 | 15 | 113 | 4.8 | 4.8 | 0.00 | 0.00 | 0.00 | 63 | 1017.1 |
| 20260508184805 | -17 | 118 | 3.2 | 8.0 | 0.00 | 0.00 | 0.00 | 1017.0 | |
| 20260508184307 | -17 | 118 | 4.8 | 8.0 | 0.00 | 0.00 | 0.00 | 1016.8 | |
| 20260508183807 | -17 | 102 | 4.8 | 4.8 | 0.00 | 0.00 | 0.00 | 1016.8 | |
| 20260508183305 | 16 | 102 | 4.8 | 4.8 | 0.00 | 0.00 | 0.00 | 61 | 1016.8 |
| 20260508182806 | 16 | 97 | 3.2 | 6.4 | 0.00 | 0.00 | 0.00 | 61 | 1016.7 |
| 20260508182306 | -17 | 110 | 6.4 | 6.4 | 0.00 | 0.00 | 0.00 | 1016.8 | |
| 20260508181805 | -17 | 104 | 3.2 | 3.2 | 0.00 | 0.00 | 0.00 | 1016.8 | |
| 20260508181612 | -17 | 86 | 1.6 | 4.8 | 0.00 | 0.00 | 0.00 | 1016.7 | |
| 20260508180753 | -17 | 71 | 4.8 | 6.4 | 0.00 | 0.00 | 0.00 | 1016.8 | |
| 20260508180252 | 16 | 87 | 3.2 | 6.4 | 0.00 | 0.00 | 0.00 | 56 | 1016.7 |
| 20260508180157 | 16 | 107 | 4.8 | 4.8 | 0.00 | 0.00 | 0.00 | 56 | 1016.7 |
| 20260508175251 | 16 | 106 | 4.8 | 6.4 | 0.00 | 0.00 | 0.00 | 56 | 1016.7 |
| 20260508174753 | 16 | 106 | 4.8 | 6.4 | 0.00 | 0.00 | 0.00 | 56 | 1016.7 |
| 20260508174251 | -17 | 168 | 0.0 | 0.0 | 0.00 | 0.00 | 0.00 | 1016.6 | |
| 20260508174118 | 17 | 168 | 0.0 | 3.2 | 0.00 | 0.00 | 0.00 | 56 | 1016.6 |
| 20260508173556 | 17 | 118 | 3.2 | 4.8 | 0.00 | 0.00 | 0.00 | 56 | 1016.6 |
| 20260508172754 | 17 | 78 | 3.2 | 8.0 | 0.00 | 0.00 | 0.00 | 56 | 1016.7 |
| 20260508172251 | 17 | 78 | 1.6 | 8.0 | 0.00 | 0.00 | 0.00 | 57 | 1016.7 |
| 20260508171752 | 16 | 63 | 6.4 | 6.4 | 0.00 | 0.00 | 0.00 | 58 | 1016.7 |
| 20260508171251 | 16 | 114 | 6.4 | 6.4 | 0.00 | 0.00 | 0.00 | 58 | 1016.7 |
| 20260508170752 | 16 | 114 | 6.4 | 6.4 | 0.00 | 0.00 | 0.00 | 58 | 1016.7 |
| 20260508170251 | -17 | 171 | 4.8 | 6.4 | 0.00 | 0.00 | 0.00 | 1016.7 | |
| 20260508165752 | 16 | 71 | 6.4 | 6.4 | 0.00 | 0.00 | 0.00 | 58 | 1016.7 |
| 20260508165251 | 16 | 93 | 3.2 | 8.0 | 0.00 | 0.00 | 0.00 | 58 | 1016.7 |
| 20260508164753 | 16 | 106 | 1.6 | 8.0 | 0.00 | 0.00 | 0.00 | 58 | 1016.6 |
| 20260508164250 | -17 | 86 | 4.8 | 6.4 | 0.00 | 0.00 | 0.00 | 1016.5 | |
| 20260508163753 | 16 | 94 | 3.2 | 6.4 | 0.00 | 0.00 | 0.00 | 58 | 1016.6 |
| 20260508163251 | 16 | 87 | 0.0 | 4.8 | 0.00 | 0.00 | 0.00 | 58 | 1016.4 |
| 20260508163123 | 16 | 87 | 0.0 | 8.0 | 0.00 | 0.00 | 0.00 | 58 | 1016.5 |
| 20260508162250 | 16 | 86 | 4.8 | 8.0 | 0.00 | 0.00 | 0.00 | 58 | 1016.5 |
| 20260508161749 | 16 | 116 | 3.2 | 4.8 | 0.00 | 0.00 | 0.00 | 58 | 1016.5 |
| 20260508161250 | 16 | 94 | 3.2 | 4.8 | 0.00 | 0.00 | 0.00 | 58 | 1016.4 |
| 20260508160749 | 16 | 100 | 4.8 | 6.4 | 0.00 | 0.00 | 0.00 | 55 | 1016.6 |
| 20260508160249 | 16 | 96 | 3.2 | 6.4 | 0.00 | 0.00 | 0.00 | 55 | 1016.5 |
| 20260508160200 | 16 | 94 | 1.6 | 4.8 | 0.00 | 0.00 | 0.00 | 55 | 1016.5 |
| 20260508155248 | 16 | 94 | 1.6 | 4.8 | 0.00 | 0.00 | 0.00 | 55 | 1016.6 |
| 20260508154750 | 16 | 89 | 6.4 | 6.4 | 0.00 | 0.00 | 0.00 | 54 | 1016.5 |
| 20260508154555 | 16 | 89 | 6.4 | 6.4 | 0.00 | 0.00 | 0.00 | 54 | 1016.6 |
| 20260508153747 | 17 | 113 | 1.6 | 1.6 | 0.00 | 0.00 | 0.00 | 55 | 1016.6 |
| 20260508153551 | 17 | 131 | 0.0 | 3.2 | 0.00 | 0.00 | 0.00 | 55 | 1016.7 |
| 20260508152748 | -17 | 131 | 0.0 | 8.0 | 0.00 | 0.00 | 0.00 | 1016.7 | |
| 20260508152249 | 17 | 110 | 3.2 | 8.0 | 0.00 | 0.00 | 0.00 | 55 | 1016.7 |
| 20260508151746 | 17 | 157 | 3.2 | 3.2 | 0.00 | 0.00 | 0.00 | 55 | 1016.6 |
| 20260508151247 | -17 | 79 | 3.2 | 8.0 | 0.00 | 0.00 | 0.00 | 1016.7 | |
| 20260508150748 | 17 | 157 | 3.2 | 8.0 | 0.00 | 0.00 | 0.00 | 54 | 1016.6 |
| 20260508150246 | 17 | 155 | 4.8 | 8.0 | 0.00 | 0.00 | 0.00 | 54 | 1016.6 |
| 20260508145748 | 17 | 164 | 6.4 | 6.4 | 0.00 | 0.00 | 0.00 | 58 | 1016.6 |
| 20260508145247 | 17 | 164 | 6.4 | 8.0 | 0.00 | 0.00 | 0.00 | 58 | 1016.7 |
| 20260508144746 | 16 | 92 | 4.8 | 8.0 | 0.00 | 0.00 | 0.00 | 55 | 1016.7 |
| 20260508144245 | 16 | 162 | 3.2 | 3.2 | 0.00 | 0.00 | 0.00 | 56 | 1016.6 |
| 20260508143746 | 16 | 162 | 3.2 | 3.2 | 0.00 | 0.00 | 0.00 | 56 | 1016.6 |
| 20260508143248 | 16 | 106 | 3.2 | 6.4 | 0.00 | 0.00 | 0.00 | 54 | 1016.7 |
| 20260508142752 | 16 | 106 | 4.8 | 6.4 | 0.00 | 0.00 | 0.00 | 54 | 1016.7 |
| 20260508142251 | 16 | 166 | 3.2 | 32.2 | 0.00 | 0.00 | 0.00 | 54 | 1016.8 |
| 20260508141745 | 16 | 166 | 3.2 | 32.2 | 0.00 | 0.00 | 0.00 | 54 | 1016.7 |
| 20260508141247 | 16 | 147 | 0.0 | 1.6 | 0.00 | 0.00 | 0.00 | 54 | 1016.7 |
| 20260508140745 | -17 | 192 | 1.6 | 1.6 | 0.00 | 0.00 | 0.00 | 1016.8 | |
| 20260508140243 | -17 | 152 | 1.6 | 4.8 | 0.00 | 0.00 | 0.00 | 1016.9 | |
| 20260508135744 | -17 | 131 | 3.2 | 4.8 | 0.00 | 0.00 | 0.00 | 1016.7 | |
| 20260508135246 | -17 | 100 | 4.8 | 4.8 | 0.00 | 0.00 | 0.00 | 1016.7 | |
| 20260508134744 | -17 | 135 | 4.8 | 6.4 | 0.00 | 0.00 | 0.00 | 1016.7 | |
| 20260508134244 | -17 | 135 | 4.8 | 6.4 | 0.00 | 0.00 | 0.00 | 1016.8 | |
| 20260508133745 | -17 | 176 | 0.0 | 1.6 | 0.00 | 0.00 | 0.00 | 1016.8 | |
| 20260508133245 | 16 | 116 | 1.6 | 8.0 | 0.00 | 0.00 | 0.00 | 54 | 1016.9 |
| 20260508132744 | 16 | 127 | 6.4 | 8.0 | 0.00 | 0.00 | 0.00 | 54 | 1016.8 |
| 20260508132240 | 16 | 130 | 4.8 | 4.8 | 0.00 | 0.00 | 0.00 | 54 | 1016.9 |
| 20260508131739 | -17 | 130 | 4.8 | 8.0 | 0.00 | 0.00 | 0.00 | 1016.9 | |
| 20260508131239 | 17 | 158 | 6.4 | 8.0 | 0.00 | 0.00 | 0.00 | 54 | 1016.9 |
| 20260508130740 | 17 | 176 | 0.0 | 4.8 | 0.00 | 0.00 | 0.00 | 54 | 1016.8 |
| 20260508130242 | 17 | 186 | 3.2 | 4.8 | 0.00 | 0.00 | 0.00 | 55 | 1016.8 |
| 20260508125737 | 17 | 104 | 4.8 | 4.8 | 0.00 | 0.00 | 0.00 | 55 | 1016.8 |
| 20260508125234 | 17 | 121 | 1.6 | 1.6 | 0.00 | 0.00 | 0.00 | 55 | 1016.9 |
| 20260508124731 | -17 | 111 | 6.4 | 11.3 | 0.00 | 0.00 | 0.00 | 1016.8 | |
| 20260508124231 | 17 | 111 | 6.4 | 11.3 | 0.00 | 0.00 | 0.00 | 54 | 1016.8 |
| 20260508123733 | 17 | 179 | 9.7 | 14.5 | 0.00 | 0.00 | 0.00 | 54 | 1016.8 |
| 20260508123231 | 17 | 179 | 9.7 | 14.5 | 0.00 | 0.00 | 0.00 | 53 | 1016.8 |
| 20260508122732 | 17 | 180 | 4.8 | 8.0 | 0.00 | 0.00 | 0.00 | 53 | 1016.9 |
| 20260508122231 | 18 | 165 | 0.0 | 9.7 | 0.00 | 0.00 | 0.00 | 54 | 1016.9 |
| 20260508121728 | 18 | 149 | 8.0 | 9.7 | 0.00 | 0.00 | 0.00 | 54 | 1016.9 |
| 20260508121225 | 18 | 206 | 4.8 | 4.8 | 0.00 | 0.00 | 0.00 | 54 | 1016.8 |
| 20260508120957 | 18 | 206 | 4.8 | 4.8 | 0.00 | 0.00 | 0.00 | 57 | 1016.8 |
| 20260508120510 | 18 | 155 | 8.0 | 8.0 | 0.00 | 0.00 | 0.00 | 57 | 1016.8 |
| 20260508115714 | -17 | 155 | 8.0 | 8.0 | 0.00 | 0.00 | 0.00 | 1016.8 | |
| 20260508115453 | -17 | 192 | 4.8 | 4.8 | 0.00 | 0.00 | 0.00 | 1016.8 | |
| 20260508114712 | -17 | 154 | 0.0 | 1.6 | 0.00 | 0.00 | 0.00 | 1016.9 | |
| 20260508114203 | -17 | 154 | 1.6 | 6.4 | 0.00 | 0.00 | 0.00 | 1016.9 | |
| 20260508113700 | 17 | 148 | 6.4 | 6.4 | 0.00 | 0.00 | 0.00 | 58 | 1016.9 |
| 20260508113200 | 17 | 148 | 3.2 | 6.4 | 0.00 | 0.00 | 0.00 | 58 | 1017.0 |
| 20260508112653 | 17 | 176 | 3.2 | 6.4 | 0.00 | 0.00 | 0.00 | 58 | 1016.9 |
| 20260508112150 | 17 | 176 | 3.2 | 6.4 | 0.00 | 0.00 | 0.00 | 58 | 1016.9 |
| 20260508111651 | -17 | 120 | 3.2 | 3.2 | 0.00 | 0.00 | 0.00 | 1016.9 | |
| 20260508111430 | -17 | 100 | 6.4 | 6.4 | 0.00 | 0.00 | 0.00 | 1016.8 | |
| 20260508110650 | -17 | 100 | 6.4 | 6.4 | 0.00 | 0.00 | 0.00 | 1016.9 | |
| 20260508110150 | -17 | 171 | 3.2 | 4.8 | 0.00 | 0.00 | 0.00 | 1017.0 | |
| 20260508105646 | -17 | 131 | 4.8 | 4.8 | 0.00 | 0.00 | 0.00 | 1016.9 | |
| 20260508105141 | -17 | 111 | 3.2 | 4.8 | 0.00 | 0.00 | 0.00 | 1016.9 | |
| 20260508104637 | -17 | 100 | 3.2 | 3.2 | 0.00 | 0.00 | 0.00 | 1016.8 | |
| 20260508104131 | 17 | 145 | 1.6 | 6.4 | 0.00 | 0.00 | 0.00 | 60 | 1016.8 |
| 20260508103633 | 17 | 87 | 4.8 | 6.4 | 0.00 | 0.00 | 0.00 | 60 | 1016.8 |
| 20260508103420 | 17 | 130 | 0.0 | 11.3 | 0.00 | 0.00 | 0.00 | 62 | 1016.9 |
| 20260508102634 | 17 | 109 | 11.3 | 11.3 | 0.00 | 0.00 | 0.00 | 62 | 1016.9 |
| 20260508102134 | 17 | 102 | 11.3 | 11.3 | 0.00 | 0.00 | 0.00 | 62 | 1016.9 |